sensor_id;sensor_type;location;lat;lon;timestamp;P1;durP1;ratioP1;P2;durP2;ratioP2
24305;SDS011;12423;48.768;8.850;2023-06-22T00:01:23;11.30;;;8.18;;
24305;SDS011;12423;48.768;8.850;2023-06-22T00:03:25;10.90;;;8.98;;
24305;SDS011;12423;48.768;8.850;2023-06-22T00:05:26;13.23;;;8.80;;
24305;SDS011;12423;48.768;8.850;2023-06-22T00:07:28;10.18;;;8.63;;
24305;SDS011;12423;48.768;8.850;2023-06-22T00:09:29;11.13;;;8.85;;
24305;SDS011;12423;48.768;8.850;2023-06-22T00:11:31;12.63;;;9.65;;
24305;SDS011;12423;48.768;8.850;2023-06-22T00:13:34;13.90;;;9.13;;
24305;SDS011;12423;48.768;8.850;2023-06-22T00:15:35;10.73;;;8.90;;
24305;SDS011;12423;48.768;8.850;2023-06-22T00:17:38;12.98;;;8.00;;
24305;SDS011;12423;48.768;8.850;2023-06-22T00:19:39;12.18;;;8.85;;
24305;SDS011;12423;48.768;8.850;2023-06-22T00:21:41;10.35;;;8.32;;
24305;SDS011;12423;48.768;8.850;2023-06-22T00:23:43;11.15;;;9.07;;
24305;SDS011;12423;48.768;8.850;2023-06-22T00:25:44;10.43;;;9.13;;
24305;SDS011;12423;48.768;8.850;2023-06-22T00:27:45;11.40;;;8.20;;
24305;SDS011;12423;48.768;8.850;2023-06-22T00:29:46;9.18;;;7.38;;
24305;SDS011;12423;48.768;8.850;2023-06-22T00:31:47;12.05;;;8.60;;
24305;SDS011;12423;48.768;8.850;2023-06-22T00:33:49;14.27;;;8.88;;
24305;SDS011;12423;48.768;8.850;2023-06-22T00:35:51;13.35;;;8.88;;
24305;SDS011;12423;48.768;8.850;2023-06-22T00:37:53;12.32;;;8.77;;
24305;SDS011;12423;48.768;8.850;2023-06-22T00:40:01;10.35;;;8.10;;
24305;SDS011;12423;48.768;8.850;2023-06-22T00:42:02;11.57;;;8.68;;
24305;SDS011;12423;48.768;8.850;2023-06-22T00:44:05;11.30;;;8.75;;
24305;SDS011;12423;48.768;8.850;2023-06-22T00:46:07;11.85;;;8.52;;
24305;SDS011;12423;48.768;8.850;2023-06-22T00:48:08;13.35;;;8.57;;
24305;SDS011;12423;48.768;8.850;2023-06-22T00:50:10;11.30;;;7.70;;
24305;SDS011;12423;48.768;8.850;2023-06-22T00:54:24;10.20;;;7.78;;
24305;SDS011;12423;48.768;8.850;2023-06-22T00:56:25;11.75;;;8.55;;
24305;SDS011;12423;48.768;8.850;2023-06-22T00:58:26;12.55;;;8.50;;
24305;SDS011;12423;48.768;8.850;2023-06-22T01:00:27;13.40;;;8.90;;
24305;SDS011;12423;48.768;8.850;2023-06-22T01:02:28;15.73;;;8.75;;
24305;SDS011;12423;48.768;8.850;2023-06-22T01:04:34;13.48;;;9.10;;
24305;SDS011;12423;48.768;8.850;2023-06-22T01:06:38;15.10;;;9.05;;
24305;SDS011;12423;48.768;8.850;2023-06-22T01:08:49;12.32;;;9.30;;
24305;SDS011;12423;48.768;8.850;2023-06-22T01:11:00;13.50;;;9.65;;
24305;SDS011;12423;48.768;8.850;2023-06-22T01:13:18;13.98;;;9.82;;
24305;SDS011;12423;48.768;8.850;2023-06-22T01:15:30;14.18;;;9.48;;
24305;SDS011;12423;48.768;8.850;2023-06-22T01:17:36;12.80;;;9.35;;
24305;SDS011;12423;48.768;8.850;2023-06-22T01:19:45;12.98;;;9.57;;
24305;SDS011;12423;48.768;8.850;2023-06-22T01:21:53;14.98;;;9.43;;
24305;SDS011;12423;48.768;8.850;2023-06-22T01:28:52;16.15;;;10.40;;
24305;SDS011;12423;48.768;8.850;2023-06-22T01:30:55;14.05;;;10.52;;
24305;SDS011;12423;48.768;8.850;2023-06-22T01:33:06;14.07;;;9.80;;
24305;SDS011;12423;48.768;8.850;2023-06-22T01:35:08;13.32;;;10.68;;
24305;SDS011;12423;48.768;8.850;2023-06-22T01:37:11;14.65;;;10.57;;
24305;SDS011;12423;48.768;8.850;2023-06-22T01:39:12;11.93;;;9.65;;
24305;SDS011;12423;48.768;8.850;2023-06-22T01:41:14;11.65;;;10.35;;
24305;SDS011;12423;48.768;8.850;2023-06-22T01:43:17;15.73;;;10.40;;
24305;SDS011;12423;48.768;8.850;2023-06-22T01:45:19;14.18;;;11.10;;
24305;SDS011;12423;48.768;8.850;2023-06-22T01:47:24;14.00;;;10.38;;
24305;SDS011;12423;48.768;8.850;2023-06-22T01:49:26;16.15;;;10.50;;
24305;SDS011;12423;48.768;8.850;2023-06-22T01:51:27;14.25;;;9.88;;
24305;SDS011;12423;48.768;8.850;2023-06-22T01:53:28;13.65;;;9.27;;
24305;SDS011;12423;48.768;8.850;2023-06-22T01:55:29;12.75;;;9.20;;
24305;SDS011;12423;48.768;8.850;2023-06-22T01:57:30;11.77;;;9.85;;
24305;SDS011;12423;48.768;8.850;2023-06-22T01:59:34;14.93;;;10.30;;
24305;SDS011;12423;48.768;8.850;2023-06-22T02:01:44;13.63;;;10.27;;
24305;SDS011;12423;48.768;8.850;2023-06-22T02:03:57;15.30;;;9.20;;
24305;SDS011;12423;48.768;8.850;2023-06-22T02:06:16;16.30;;;10.50;;
24305;SDS011;12423;48.768;8.850;2023-06-22T02:08:22;13.80;;;10.25;;
24305;SDS011;12423;48.768;8.850;2023-06-22T02:10:26;12.02;;;9.98;;
24305;SDS011;12423;48.768;8.850;2023-06-22T02:12:48;16.63;;;10.98;;
24305;SDS011;12423;48.768;8.850;2023-06-22T02:14:52;17.58;;;10.95;;
24305;SDS011;12423;48.768;8.850;2023-06-22T02:16:53;14.15;;;10.15;;
24305;SDS011;12423;48.768;8.850;2023-06-22T02:18:55;12.43;;;9.57;;
24305;SDS011;12423;48.768;8.850;2023-06-22T02:21:03;14.48;;;9.57;;
24305;SDS011;12423;48.768;8.850;2023-06-22T02:23:05;12.05;;;9.27;;
24305;SDS011;12423;48.768;8.850;2023-06-22T02:25:09;13.73;;;9.60;;
24305;SDS011;12423;48.768;8.850;2023-06-22T02:27:10;14.85;;;9.38;;
24305;SDS011;12423;48.768;8.850;2023-06-22T02:29:11;14.45;;;10.00;;
24305;SDS011;12423;48.768;8.850;2023-06-22T02:31:12;15.02;;;9.13;;
24305;SDS011;12423;48.768;8.850;2023-06-22T02:33:13;14.73;;;9.27;;
24305;SDS011;12423;48.768;8.850;2023-06-22T02:35:14;11.63;;;9.80;;
24305;SDS011;12423;48.768;8.850;2023-06-22T02:37:16;15.02;;;9.85;;
24305;SDS011;12423;48.768;8.850;2023-06-22T02:39:18;12.07;;;9.32;;
24305;SDS011;12423;48.768;8.850;2023-06-22T02:41:24;14.82;;;9.80;;
24305;SDS011;12423;48.768;8.850;2023-06-22T02:43:25;14.55;;;9.77;;
24305;SDS011;12423;48.768;8.850;2023-06-22T02:45:26;16.17;;;10.10;;
24305;SDS011;12423;48.768;8.850;2023-06-22T02:47:27;18.02;;;10.57;;
24305;SDS011;12423;48.768;8.850;2023-06-22T02:49:28;14.38;;;9.80;;
24305;SDS011;12423;48.768;8.850;2023-06-22T02:51:30;14.40;;;9.48;;
24305;SDS011;12423;48.768;8.850;2023-06-22T02:53:35;14.82;;;10.52;;
24305;SDS011;12423;48.768;8.850;2023-06-22T02:55:36;15.75;;;9.95;;
24305;SDS011;12423;48.768;8.850;2023-06-22T02:57:38;12.88;;;9.60;;
24305;SDS011;12423;48.768;8.850;2023-06-22T02:59:44;11.40;;;9.65;;
24305;SDS011;12423;48.768;8.850;2023-06-22T03:01:46;13.63;;;9.68;;
24305;SDS011;12423;48.768;8.850;2023-06-22T03:04:01;11.98;;;9.13;;
24305;SDS011;12423;48.768;8.850;2023-06-22T03:06:02;12.70;;;9.48;;
24305;SDS011;12423;48.768;8.850;2023-06-22T03:08:03;14.52;;;10.07;;
24305;SDS011;12423;48.768;8.850;2023-06-22T03:10:10;15.57;;;10.63;;
24305;SDS011;12423;48.768;8.850;2023-06-22T03:12:13;12.65;;;10.32;;
24305;SDS011;12423;48.768;8.850;2023-06-22T03:14:22;16.55;;;9.70;;
24305;SDS011;12423;48.768;8.850;2023-06-22T03:16:26;13.88;;;9.13;;
24305;SDS011;12423;48.768;8.850;2023-06-22T03:18:27;15.38;;;9.48;;
24305;SDS011;12423;48.768;8.850;2023-06-22T03:20:28;16.50;;;10.68;;
24305;SDS011;12423;48.768;8.850;2023-06-22T03:22:34;13.43;;;10.73;;
24305;SDS011;12423;48.768;8.850;2023-06-22T03:24:36;17.17;;;10.40;;
24305;SDS011;12423;48.768;8.850;2023-06-22T03:26:39;17.13;;;10.52;;
24305;SDS011;12423;48.768;8.850;2023-06-22T03:28:40;16.55;;;9.75;;
24305;SDS011;12423;48.768;8.850;2023-06-22T03:30:42;19.48;;;10.18;;
24305;SDS011;12423;48.768;8.850;2023-06-22T03:32:43;14.23;;;10.35;;
24305;SDS011;12423;48.768;8.850;2023-06-22T03:34:44;18.35;;;10.65;;
24305;SDS011;12423;48.768;8.850;2023-06-22T03:36:48;20.98;;;9.70;;
24305;SDS011;12423;48.768;8.850;2023-06-22T03:38:49;19.83;;;9.98;;
24305;SDS011;12423;48.768;8.850;2023-06-22T03:40:51;13.00;;;9.63;;
24305;SDS011;12423;48.768;8.850;2023-06-22T03:42:53;20.90;;;11.88;;
24305;SDS011;12423;48.768;8.850;2023-06-22T03:44:54;17.73;;;10.68;;
24305;SDS011;12423;48.768;8.850;2023-06-22T03:46:55;18.25;;;10.27;;
24305;SDS011;12423;48.768;8.850;2023-06-22T03:48:56;15.82;;;9.27;;
24305;SDS011;12423;48.768;8.850;2023-06-22T03:50:58;16.20;;;10.18;;
24305;SDS011;12423;48.768;8.850;2023-06-22T03:53:00;16.48;;;9.43;;
24305;SDS011;12423;48.768;8.850;2023-06-22T03:55:01;13.90;;;10.27;;
24305;SDS011;12423;48.768;8.850;2023-06-22T03:57:02;13.43;;;10.13;;
24305;SDS011;12423;48.768;8.850;2023-06-22T03:59:03;16.98;;;11.18;;
24305;SDS011;12423;48.768;8.850;2023-06-22T04:01:04;16.52;;;10.20;;
24305;SDS011;12423;48.768;8.850;2023-06-22T04:03:07;15.30;;;9.48;;
24305;SDS011;12423;48.768;8.850;2023-06-22T04:05:08;14.27;;;9.98;;
24305;SDS011;12423;48.768;8.850;2023-06-22T04:07:09;13.68;;;9.65;;
24305;SDS011;12423;48.768;8.850;2023-06-22T04:09:11;14.60;;;9.65;;
24305;SDS011;12423;48.768;8.850;2023-06-22T04:11:12;17.90;;;9.93;;
24305;SDS011;12423;48.768;8.850;2023-06-22T04:13:13;11.35;;;9.43;;
24305;SDS011;12423;48.768;8.850;2023-06-22T04:15:14;17.17;;;9.52;;
24305;SDS011;12423;48.768;8.850;2023-06-22T04:17:15;13.75;;;9.50;;
24305;SDS011;12423;48.768;8.850;2023-06-22T04:19:16;20.88;;;10.55;;
24305;SDS011;12423;48.768;8.850;2023-06-22T04:21:18;14.20;;;9.77;;
24305;SDS011;12423;48.768;8.850;2023-06-22T04:23:20;14.93;;;10.20;;
24305;SDS011;12423;48.768;8.850;2023-06-22T04:25:21;16.08;;;9.57;;
24305;SDS011;12423;48.768;8.850;2023-06-22T04:27:22;16.90;;;10.55;;
24305;SDS011;12423;48.768;8.850;2023-06-22T04:29:24;12.25;;;10.15;;
24305;SDS011;12423;48.768;8.850;2023-06-22T04:31:29;16.30;;;10.60;;
24305;SDS011;12423;48.768;8.850;2023-06-22T04:33:32;17.70;;;9.98;;
24305;SDS011;12423;48.768;8.850;2023-06-22T04:35:33;15.57;;;9.80;;
24305;SDS011;12423;48.768;8.850;2023-06-22T04:37:34;17.30;;;10.57;;
24305;SDS011;12423;48.768;8.850;2023-06-22T04:39:35;15.63;;;9.82;;
24305;SDS011;12423;48.768;8.850;2023-06-22T04:41:36;14.25;;;9.20;;
24305;SDS011;12423;48.768;8.850;2023-06-22T04:43:44;16.77;;;9.75;;
24305;SDS011;12423;48.768;8.850;2023-06-22T04:45:45;17.83;;;10.35;;
24305;SDS011;12423;48.768;8.850;2023-06-22T04:47:46;14.77;;;10.32;;
24305;SDS011;12423;48.768;8.850;2023-06-22T04:49:47;16.55;;;9.98;;
24305;SDS011;12423;48.768;8.850;2023-06-22T04:51:48;18.15;;;10.18;;
24305;SDS011;12423;48.768;8.850;2023-06-22T04:53:52;16.23;;;9.65;;
24305;SDS011;12423;48.768;8.850;2023-06-22T04:55:53;17.38;;;9.15;;
24305;SDS011;12423;48.768;8.850;2023-06-22T04:57:54;19.15;;;10.45;;
24305;SDS011;12423;48.768;8.850;2023-06-22T04:59:55;15.77;;;9.98;;
24305;SDS011;12423;48.768;8.850;2023-06-22T05:01:56;18.77;;;10.13;;
24305;SDS011;12423;48.768;8.850;2023-06-22T05:03:58;14.77;;;9.70;;
24305;SDS011;12423;48.768;8.850;2023-06-22T05:06:01;22.00;;;10.68;;
24305;SDS011;12423;48.768;8.850;2023-06-22T05:08:02;21.75;;;9.82;;
24305;SDS011;12423;48.768;8.850;2023-06-22T05:10:04;18.92;;;11.48;;
24305;SDS011;12423;48.768;8.850;2023-06-22T05:12:05;14.68;;;10.68;;
24305;SDS011;12423;48.768;8.850;2023-06-22T05:14:08;16.10;;;11.15;;
24305;SDS011;12423;48.768;8.850;2023-06-22T05:16:09;14.38;;;11.05;;
24305;SDS011;12423;48.768;8.850;2023-06-22T05:18:10;17.33;;;10.52;;
24305;SDS011;12423;48.768;8.850;2023-06-22T05:20:12;19.52;;;11.98;;
24305;SDS011;12423;48.768;8.850;2023-06-22T05:22:16;17.85;;;11.50;;
24305;SDS011;12423;48.768;8.850;2023-06-22T05:24:18;12.75;;;10.82;;
24305;SDS011;12423;48.768;8.850;2023-06-22T05:26:19;14.35;;;11.35;;
24305;SDS011;12423;48.768;8.850;2023-06-22T05:28:21;17.10;;;11.80;;
24305;SDS011;12423;48.768;8.850;2023-06-22T05:30:23;16.58;;;10.90;;
24305;SDS011;12423;48.768;8.850;2023-06-22T05:32:24;17.90;;;12.25;;
24305;SDS011;12423;48.768;8.850;2023-06-22T05:34:25;13.77;;;11.10;;
24305;SDS011;12423;48.768;8.850;2023-06-22T05:36:26;20.08;;;11.25;;
24305;SDS011;12423;48.768;8.850;2023-06-22T05:38:27;13.95;;;11.00;;
24305;SDS011;12423;48.768;8.850;2023-06-22T05:40:28;17.27;;;11.15;;
24305;SDS011;12423;48.768;8.850;2023-06-22T05:42:29;15.50;;;10.88;;
24305;SDS011;12423;48.768;8.850;2023-06-22T05:44:30;13.35;;;11.02;;
24305;SDS011;12423;48.768;8.850;2023-06-22T05:46:32;17.77;;;11.43;;
24305;SDS011;12423;48.768;8.850;2023-06-22T05:48:33;14.25;;;11.35;;
24305;SDS011;12423;48.768;8.850;2023-06-22T05:50:34;15.65;;;11.30;;
24305;SDS011;12423;48.768;8.850;2023-06-22T05:52:36;14.25;;;11.20;;
24305;SDS011;12423;48.768;8.850;2023-06-22T05:54:37;17.17;;;11.48;;
24305;SDS011;12423;48.768;8.850;2023-06-22T05:56:39;14.50;;;10.23;;
24305;SDS011;12423;48.768;8.850;2023-06-22T05:58:40;18.55;;;10.75;;
24305;SDS011;12423;48.768;8.850;2023-06-22T06:00:42;17.52;;;10.15;;
24305;SDS011;12423;48.768;8.850;2023-06-22T06:02:43;19.63;;;11.25;;
24305;SDS011;12423;48.768;8.850;2023-06-22T06:04:44;14.35;;;10.75;;
24305;SDS011;12423;48.768;8.850;2023-06-22T06:06:45;13.30;;;10.63;;
24305;SDS011;12423;48.768;8.850;2023-06-22T06:08:47;15.85;;;10.27;;
24305;SDS011;12423;48.768;8.850;2023-06-22T06:10:48;13.60;;;9.45;;
24305;SDS011;12423;48.768;8.850;2023-06-22T06:12:49;11.95;;;9.70;;
24305;SDS011;12423;48.768;8.850;2023-06-22T06:14:50;13.98;;;9.75;;
24305;SDS011;12423;48.768;8.850;2023-06-22T06:16:54;12.77;;;8.88;;
24305;SDS011;12423;48.768;8.850;2023-06-22T06:18:55;13.70;;;9.75;;
24305;SDS011;12423;48.768;8.850;2023-06-22T06:20:56;12.45;;;9.55;;
24305;SDS011;12423;48.768;8.850;2023-06-22T06:22:57;12.52;;;8.65;;
24305;SDS011;12423;48.768;8.850;2023-06-22T06:24:58;14.80;;;9.02;;
24305;SDS011;12423;48.768;8.850;2023-06-22T06:26:59;10.98;;;8.75;;
24305;SDS011;12423;48.768;8.850;2023-06-22T06:29:01;16.20;;;8.93;;
24305;SDS011;12423;48.768;8.850;2023-06-22T06:31:03;13.15;;;9.00;;
24305;SDS011;12423;48.768;8.850;2023-06-22T06:33:07;15.02;;;9.82;;
24305;SDS011;12423;48.768;8.850;2023-06-22T06:35:09;13.85;;;8.32;;
24305;SDS011;12423;48.768;8.850;2023-06-22T06:37:10;11.63;;;8.07;;
24305;SDS011;12423;48.768;8.850;2023-06-22T06:39:11;13.82;;;7.70;;
24305;SDS011;12423;48.768;8.850;2023-06-22T06:41:13;14.00;;;8.07;;
24305;SDS011;12423;48.768;8.850;2023-06-22T06:43:15;14.15;;;7.05;;
24305;SDS011;12423;48.768;8.850;2023-06-22T06:45:17;9.23;;;7.18;;
24305;SDS011;12423;48.768;8.850;2023-06-22T06:47:20;16.48;;;7.40;;
24305;SDS011;12423;48.768;8.850;2023-06-22T06:49:21;16.85;;;8.23;;
24305;SDS011;12423;48.768;8.850;2023-06-22T06:51:22;14.88;;;8.30;;
24305;SDS011;12423;48.768;8.850;2023-06-22T06:53:23;11.30;;;7.38;;
24305;SDS011;12423;48.768;8.850;2023-06-22T06:55:24;11.27;;;6.60;;
24305;SDS011;12423;48.768;8.850;2023-06-22T06:57:26;9.35;;;6.57;;
24305;SDS011;12423;48.768;8.850;2023-06-22T06:59:30;7.93;;;5.47;;
24305;SDS011;12423;48.768;8.850;2023-06-22T07:01:31;12.32;;;5.60;;
24305;SDS011;12423;48.768;8.850;2023-06-22T07:03:34;8.82;;;5.78;;
24305;SDS011;12423;48.768;8.850;2023-06-22T07:05:35;6.82;;;5.05;;
24305;SDS011;12423;48.768;8.850;2023-06-22T07:07:36;7.85;;;5.28;;
24305;SDS011;12423;48.768;8.850;2023-06-22T07:09:37;9.10;;;6.05;;
24305;SDS011;12423;48.768;8.850;2023-06-22T07:11:38;8.10;;;5.68;;
24305;SDS011;12423;48.768;8.850;2023-06-22T07:13:39;7.90;;;5.63;;
24305;SDS011;12423;48.768;8.850;2023-06-22T07:15:40;8.10;;;5.43;;
24305;SDS011;12423;48.768;8.850;2023-06-22T07:17:41;13.00;;;6.10;;
24305;SDS011;12423;48.768;8.850;2023-06-22T07:19:42;9.45;;;5.03;;
24305;SDS011;12423;48.768;8.850;2023-06-22T07:21:43;9.82;;;5.25;;
24305;SDS011;12423;48.768;8.850;2023-06-22T07:23:44;10.80;;;5.22;;
24305;SDS011;12423;48.768;8.850;2023-06-22T07:25:45;8.55;;;4.88;;
24305;SDS011;12423;48.768;8.850;2023-06-22T07:27:56;8.48;;;4.97;;
24305;SDS011;12423;48.768;8.850;2023-06-22T07:29:59;10.95;;;5.47;;
24305;SDS011;12423;48.768;8.850;2023-06-22T07:32:00;8.40;;;4.70;;
24305;SDS011;12423;48.768;8.850;2023-06-22T07:34:01;10.07;;;4.60;;
24305;SDS011;12423;48.768;8.850;2023-06-22T07:36:03;16.10;;;4.55;;
24305;SDS011;12423;48.768;8.850;2023-06-22T07:38:08;9.63;;;4.93;;
24305;SDS011;12423;48.768;8.850;2023-06-22T07:40:10;9.60;;;4.28;;
24305;SDS011;12423;48.768;8.850;2023-06-22T07:42:11;11.05;;;4.75;;
24305;SDS011;12423;48.768;8.850;2023-06-22T07:44:12;11.35;;;5.00;;
24305;SDS011;12423;48.768;8.850;2023-06-22T07:46:13;11.90;;;4.63;;
24305;SDS011;12423;48.768;8.850;2023-06-22T07:48:14;13.82;;;4.97;;
24305;SDS011;12423;48.768;8.850;2023-06-22T07:50:15;10.25;;;4.90;;
24305;SDS011;12423;48.768;8.850;2023-06-22T07:52:19;13.70;;;5.10;;
24305;SDS011;12423;48.768;8.850;2023-06-22T07:54:21;8.80;;;4.82;;
24305;SDS011;12423;48.768;8.850;2023-06-22T07:56:22;10.77;;;4.35;;
24305;SDS011;12423;48.768;8.850;2023-06-22T07:58:23;10.07;;;4.68;;
24305;SDS011;12423;48.768;8.850;2023-06-22T08:00:24;10.40;;;4.70;;
24305;SDS011;12423;48.768;8.850;2023-06-22T08:02:26;8.75;;;4.70;;
24305;SDS011;12423;48.768;8.850;2023-06-22T08:04:27;11.70;;;5.00;;
24305;SDS011;12423;48.768;8.850;2023-06-22T08:06:30;10.38;;;5.35;;
24305;SDS011;12423;48.768;8.850;2023-06-22T08:08:31;11.80;;;5.05;;
24305;SDS011;12423;48.768;8.850;2023-06-22T08:10:32;11.18;;;5.10;;
24305;SDS011;12423;48.768;8.850;2023-06-22T08:12:33;8.52;;;5.10;;
24305;SDS011;12423;48.768;8.850;2023-06-22T08:14:35;13.60;;;5.20;;
24305;SDS011;12423;48.768;8.850;2023-06-22T08:16:38;16.27;;;5.30;;
24305;SDS011;12423;48.768;8.850;2023-06-22T08:18:39;8.35;;;4.22;;
24305;SDS011;12423;48.768;8.850;2023-06-22T08:20:40;11.07;;;5.07;;
24305;SDS011;12423;48.768;8.850;2023-06-22T08:22:41;8.85;;;4.80;;
24305;SDS011;12423;48.768;8.850;2023-06-22T08:24:43;9.07;;;4.75;;
24305;SDS011;12423;48.768;8.850;2023-06-22T08:26:44;12.75;;;5.05;;
24305;SDS011;12423;48.768;8.850;2023-06-22T08:28:45;10.57;;;5.57;;
24305;SDS011;12423;48.768;8.850;2023-06-22T08:30:46;10.77;;;4.82;;
24305;SDS011;12423;48.768;8.850;2023-06-22T08:32:47;9.68;;;5.53;;
24305;SDS011;12423;48.768;8.850;2023-06-22T08:34:48;8.80;;;4.93;;
24305;SDS011;12423;48.768;8.850;2023-06-22T08:36:49;10.45;;;5.00;;
24305;SDS011;12423;48.768;8.850;2023-06-22T08:38:53;10.70;;;5.00;;
24305;SDS011;12423;48.768;8.850;2023-06-22T08:40:54;13.68;;;5.35;;
24305;SDS011;12423;48.768;8.850;2023-06-22T08:42:55;8.85;;;5.00;;
24305;SDS011;12423;48.768;8.850;2023-06-22T08:44:56;9.18;;;4.93;;
24305;SDS011;12423;48.768;8.850;2023-06-22T08:46:57;10.13;;;4.95;;
24305;SDS011;12423;48.768;8.850;2023-06-22T08:48:59;9.02;;;4.35;;
24305;SDS011;12423;48.768;8.850;2023-06-22T08:51:00;9.48;;;5.35;;
24305;SDS011;12423;48.768;8.850;2023-06-22T08:53:01;11.75;;;4.90;;
24305;SDS011;12423;48.768;8.850;2023-06-22T08:55:02;9.65;;;5.53;;
24305;SDS011;12423;48.768;8.850;2023-06-22T08:57:03;8.05;;;5.22;;
24305;SDS011;12423;48.768;8.850;2023-06-22T08:59:04;11.88;;;5.45;;
24305;SDS011;12423;48.768;8.850;2023-06-22T09:01:08;11.35;;;5.20;;
24305;SDS011;12423;48.768;8.850;2023-06-22T09:03:09;18.77;;;5.93;;
24305;SDS011;12423;48.768;8.850;2023-06-22T09:05:10;9.70;;;5.07;;
24305;SDS011;12423;48.768;8.850;2023-06-22T09:07:11;8.93;;;5.43;;
24305;SDS011;12423;48.768;8.850;2023-06-22T09:09:12;11.85;;;4.78;;
24305;SDS011;12423;48.768;8.850;2023-06-22T09:11:14;8.85;;;4.88;;
24305;SDS011;12423;48.768;8.850;2023-06-22T09:13:15;10.00;;;5.10;;
24305;SDS011;12423;48.768;8.850;2023-06-22T09:15:16;10.95;;;5.00;;
24305;SDS011;12423;48.768;8.850;2023-06-22T09:17:18;7.53;;;4.95;;
24305;SDS011;12423;48.768;8.850;2023-06-22T09:19:19;10.18;;;5.25;;
24305;SDS011;12423;48.768;8.850;2023-06-22T09:21:20;12.88;;;5.43;;
24305;SDS011;12423;48.768;8.850;2023-06-22T09:23:21;9.18;;;5.13;;
24305;SDS011;12423;48.768;8.850;2023-06-22T09:25:22;11.23;;;5.20;;
24305;SDS011;12423;48.768;8.850;2023-06-22T09:27:23;10.07;;;5.10;;
24305;SDS011;12423;48.768;8.850;2023-06-22T09:29:24;15.15;;;5.45;;
24305;SDS011;12423;48.768;8.850;2023-06-22T09:31:25;12.60;;;5.65;;
24305;SDS011;12423;48.768;8.850;2023-06-22T09:33:27;12.70;;;5.55;;
24305;SDS011;12423;48.768;8.850;2023-06-22T09:35:28;12.23;;;5.18;;
24305;SDS011;12423;48.768;8.850;2023-06-22T09:37:29;15.85;;;5.35;;
24305;SDS011;12423;48.768;8.850;2023-06-22T09:39:30;12.30;;;5.28;;
24305;SDS011;12423;48.768;8.850;2023-06-22T09:41:31;16.33;;;5.43;;
24305;SDS011;12423;48.768;8.850;2023-06-22T09:43:32;14.35;;;5.55;;
24305;SDS011;12423;48.768;8.850;2023-06-22T09:45:36;7.72;;;4.53;;
24305;SDS011;12423;48.768;8.850;2023-06-22T09:47:37;12.70;;;5.35;;
24305;SDS011;12423;48.768;8.850;2023-06-22T09:49:38;11.70;;;5.57;;
24305;SDS011;12423;48.768;8.850;2023-06-22T09:51:39;10.48;;;5.05;;
24305;SDS011;12423;48.768;8.850;2023-06-22T09:53:40;10.75;;;4.90;;
24305;SDS011;12423;48.768;8.850;2023-06-22T09:55:41;12.38;;;5.38;;
24305;SDS011;12423;48.768;8.850;2023-06-22T09:57:42;12.35;;;4.95;;
24305;SDS011;12423;48.768;8.850;2023-06-22T09:59:43;12.18;;;5.20;;
24305;SDS011;12423;48.768;8.850;2023-06-22T10:01:44;12.65;;;5.40;;
24305;SDS011;12423;48.768;8.850;2023-06-22T10:03:45;10.25;;;5.25;;
24305;SDS011;12423;48.768;8.850;2023-06-22T10:05:46;11.40;;;4.80;;
24305;SDS011;12423;48.768;8.850;2023-06-22T10:07:47;9.45;;;5.05;;
24305;SDS011;12423;48.768;8.850;2023-06-22T10:09:48;13.15;;;5.50;;
24305;SDS011;12423;48.768;8.850;2023-06-22T10:11:49;16.48;;;6.07;;
24305;SDS011;12423;48.768;8.850;2023-06-22T10:13:50;13.23;;;5.35;;
24305;SDS011;12423;48.768;8.850;2023-06-22T10:15:51;10.77;;;5.25;;
24305;SDS011;12423;48.768;8.850;2023-06-22T10:17:53;11.75;;;4.72;;
24305;SDS011;12423;48.768;8.850;2023-06-22T10:19:54;21.30;;;6.30;;
24305;SDS011;12423;48.768;8.850;2023-06-22T10:21:55;18.10;;;6.15;;
24305;SDS011;12423;48.768;8.850;2023-06-22T10:23:56;11.98;;;5.55;;
24305;SDS011;12423;48.768;8.850;2023-06-22T10:25:57;13.52;;;5.10;;
24305;SDS011;12423;48.768;8.850;2023-06-22T10:27:58;15.27;;;4.75;;
24305;SDS011;12423;48.768;8.850;2023-06-22T10:29:59;12.20;;;5.07;;
24305;SDS011;12423;48.768;8.850;2023-06-22T10:32:00;9.77;;;4.68;;
24305;SDS011;12423;48.768;8.850;2023-06-22T10:34:01;10.65;;;4.70;;
24305;SDS011;12423;48.768;8.850;2023-06-22T10:36:03;11.60;;;5.00;;
24305;SDS011;12423;48.768;8.850;2023-06-22T10:38:04;12.52;;;4.72;;
24305;SDS011;12423;48.768;8.850;2023-06-22T10:40:05;13.65;;;5.03;;
24305;SDS011;12423;48.768;8.850;2023-06-22T10:42:08;13.55;;;4.97;;
24305;SDS011;12423;48.768;8.850;2023-06-22T10:44:09;11.00;;;4.70;;
24305;SDS011;12423;48.768;8.850;2023-06-22T10:46:10;15.32;;;5.03;;
24305;SDS011;12423;48.768;8.850;2023-06-22T10:48:11;11.13;;;5.38;;
24305;SDS011;12423;48.768;8.850;2023-06-22T10:50:12;16.65;;;5.30;;
24305;SDS011;12423;48.768;8.850;2023-06-22T10:52:13;11.27;;;5.03;;
24305;SDS011;12423;48.768;8.850;2023-06-22T10:54:14;11.88;;;5.20;;
24305;SDS011;12423;48.768;8.850;2023-06-22T10:56:18;9.98;;;4.75;;
24305;SDS011;12423;48.768;8.850;2023-06-22T10:58:20;13.15;;;5.20;;
24305;SDS011;12423;48.768;8.850;2023-06-22T11:00:21;11.65;;;5.25;;
24305;SDS011;12423;48.768;8.850;2023-06-22T11:02:22;11.02;;;4.75;;
24305;SDS011;12423;48.768;8.850;2023-06-22T11:04:24;13.85;;;4.95;;
24305;SDS011;12423;48.768;8.850;2023-06-22T11:06:25;12.10;;;4.95;;
24305;SDS011;12423;48.768;8.850;2023-06-22T11:08:26;11.02;;;4.35;;
24305;SDS011;12423;48.768;8.850;2023-06-22T11:10:27;12.60;;;5.07;;
24305;SDS011;12423;48.768;8.850;2023-06-22T11:12:28;13.80;;;5.35;;
24305;SDS011;12423;48.768;8.850;2023-06-22T11:14:29;15.05;;;5.70;;
24305;SDS011;12423;48.768;8.850;2023-06-22T11:16:30;14.00;;;4.97;;
24305;SDS011;12423;48.768;8.850;2023-06-22T11:18:31;9.77;;;4.90;;
24305;SDS011;12423;48.768;8.850;2023-06-22T11:20:34;12.43;;;5.20;;
24305;SDS011;12423;48.768;8.850;2023-06-22T11:22:39;12.55;;;4.78;;
24305;SDS011;12423;48.768;8.850;2023-06-22T11:24:41;17.88;;;4.50;;
24305;SDS011;12423;48.768;8.850;2023-06-22T11:26:42;12.13;;;4.40;;
24305;SDS011;12423;48.768;8.850;2023-06-22T11:28:44;14.57;;;5.65;;
24305;SDS011;12423;48.768;8.850;2023-06-22T11:30:45;13.73;;;5.60;;
24305;SDS011;12423;48.768;8.850;2023-06-22T11:32:46;14.35;;;4.90;;
24305;SDS011;12423;48.768;8.850;2023-06-22T11:34:47;16.42;;;5.50;;
24305;SDS011;12423;48.768;8.850;2023-06-22T11:36:48;14.27;;;5.38;;
24305;SDS011;12423;48.768;8.850;2023-06-22T11:38:49;11.80;;;5.57;;
24305;SDS011;12423;48.768;8.850;2023-06-22T11:40:50;10.70;;;5.43;;
24305;SDS011;12423;48.768;8.850;2023-06-22T11:42:51;13.98;;;5.38;;
24305;SDS011;12423;48.768;8.850;2023-06-22T11:44:52;13.43;;;5.25;;
24305;SDS011;12423;48.768;8.850;2023-06-22T11:46:53;12.70;;;5.82;;
24305;SDS011;12423;48.768;8.850;2023-06-22T11:48:54;13.88;;;5.05;;
24305;SDS011;12423;48.768;8.850;2023-06-22T11:50:55;14.75;;;4.95;;
24305;SDS011;12423;48.768;8.850;2023-06-22T11:52:56;12.48;;;5.00;;
24305;SDS011;12423;48.768;8.850;2023-06-22T11:54:57;13.80;;;5.88;;
24305;SDS011;12423;48.768;8.850;2023-06-22T11:57:00;13.48;;;5.00;;
24305;SDS011;12423;48.768;8.850;2023-06-22T11:59:01;19.00;;;5.10;;
24305;SDS011;12423;48.768;8.850;2023-06-22T12:01:02;14.73;;;5.97;;
24305;SDS011;12423;48.768;8.850;2023-06-22T12:03:03;11.15;;;5.35;;
24305;SDS011;12423;48.768;8.850;2023-06-22T12:05:04;13.35;;;5.82;;
24305;SDS011;12423;48.768;8.850;2023-06-22T12:07:06;11.65;;;5.55;;
24305;SDS011;12423;48.768;8.850;2023-06-22T12:09:07;14.52;;;6.60;;
24305;SDS011;12423;48.768;8.850;2023-06-22T12:11:08;12.32;;;5.30;;